Time;durP1;ratioP1;P1;durP2;ratioP2;P2;SDS_P1;SDS_P2;PMS_P1;PMS_P2;Temp;Humidity;BMP_temperature;BMP_pressure;BME280_temperature;BME280_humidity;BME280_pressure;Samples;Min_cycle;Max_cycle;Signal;HPM_P1;HPM_P2
2022/06/30 00:00:07;;;;;;;4.10;0.57;;;;;;;17.00;58.27;99620.66;5045319;28;20045;-47
2022/06/30 00:02:37;;;;;;;1.70;0.60;;;;;;;16.95;58.69;99626.06;5046491;28;20052;-47
2022/06/30 00:05:05;;;;;;;1.42;0.63;;;;;;;16.89;58.37;99627.13;5046476;28;20052;-49
2022/06/30 00:07:32;;;;;;;1.08;0.50;;;;;;;16.83;58.35;99624.75;5044269;28;20045;-49
2022/06/30 00:09:58;;;;;;;2.40;0.68;;;;;;;16.77;58.12;99620.59;5044612;28;20393;-45
2022/06/30 00:12:25;;;;;;;2.00;0.38;;;;;;;16.72;58.30;99616.44;5045482;28;20171;-49
2022/06/30 00:14:53;;;;;;;2.47;0.50;;;;;;;16.68;58.99;99616.53;5045609;28;20056;-46
2022/06/30 00:17:20;;;;;;;3.05;0.80;;;;;;;16.65;59.26;99608.78;5044225;28;20049;-48
2022/06/30 00:19:47;;;;;;;3.80;0.93;;;;;;;16.64;59.35;99608.84;5046013;28;20049;-46
2022/06/30 00:22:15;;;;;;;1.55;0.50;;;;;;;16.62;59.20;99600.22;5043656;28;20044;-48
2022/06/30 00:24:43;;;;;;;2.05;0.50;;;;;;;16.59;59.67;99603.78;5042613;28;20045;-45
2022/06/30 00:27:11;;;;;;;3.17;0.68;;;;;;;16.59;59.09;99601.19;5045287;28;20071;-47
2022/06/30 00:29:39;;;;;;;3.35;0.57;;;;;;;16.57;59.38;99603.84;5044870;28;20041;-46
2022/06/30 00:32:08;;;;;;;2.38;0.70;;;;;;;16.54;59.29;99596.09;5044869;28;20075;-45
2022/06/30 00:34:37;;;;;;;2.00;0.45;;;;;;;16.52;59.18;99610.97;5042924;28;20076;-49
2022/06/30 00:37:05;;;;;;;2.45;0.88;;;;;;;16.52;59.15;99599.69;5044695;28;20053;-45
2022/06/30 00:39:33;;;;;;;2.45;0.73;;;;;;;16.51;59.60;99604.03;5040443;28;20056;-47
2022/06/30 00:42:00;;;;;;;1.80;1.13;;;;;;;16.50;59.45;99585.78;5042391;28;20122;-49
2022/06/30 00:44:28;;;;;;;2.10;0.93;;;;;;;16.48;59.41;99579.78;5040633;28;20044;-47
2022/06/30 00:46:56;;;;;;;1.38;0.63;;;;;;;16.47;59.62;99588.50;5042389;28;20585;-50
2022/06/30 00:49:22;;;;;;;2.33;1.00;;;;;;;16.47;59.33;99591.13;5045788;28;20550;-48
2022/06/30 00:51:49;;;;;;;2.25;1.30;;;;;;;16.45;59.93;99599.03;5041584;28;20215;-50
2022/06/30 00:54:16;;;;;;;4.25;1.65;;;;;;;16.44;59.85;99603.41;5046024;28;20056;-46
2022/06/30 00:56:46;;;;;;;3.63;0.68;;;;;;;16.44;60.10;99606.03;5045354;28;20131;-46
2022/06/30 00:59:16;;;;;;;1.38;0.77;;;;;;;16.43;59.90;99599.09;5047153;28;20045;-51
2022/06/30 01:01:44;;;;;;;5.65;0.93;;;;;;;16.40;60.01;99601.81;5040054;28;20049;-50
2022/06/30 01:04:14;;;;;;;2.58;1.05;;;;;;;16.40;60.31;99596.59;5044209;28;20049;-50
2022/06/30 01:06:42;;;;;;;;;;;;;;;16.18;60.04;99597.28;5045008;28;20045;-51
2022/06/30 01:09:09;;;;;;;4.22;0.60;;;;;;;16.34;60.23;99591.56;5041969;28;20120;-46
2022/06/30 01:14:22;;;;;;;1.55;0.60;;;;;;;16.34;60.47;99586.31;5018353;28;20341;-47
2022/06/30 01:16:49;;;;;;;3.05;0.80;;;;;;;16.34;60.33;99585.50;5023935;28;20573;-47
2022/06/30 01:19:16;;;;;;;3.35;0.52;;;;;;;16.34;60.67;99591.56;5021958;28;20041;-46
2022/06/30 01:22:00;;;;;;;1.75;0.70;;;;;;;16.27;60.35;99590.06;5019936;28;20050;-47
2022/06/30 01:24:27;;;;;;;4.55;0.70;;;;;;;16.33;60.17;99592.47;5020829;28;20057;-46
2022/06/30 01:26:56;;;;;;;1.48;0.52;;;;;;;16.36;60.71;99599.34;5021264;28;20049;-48
2022/06/30 01:29:23;;;;;;;2.10;1.13;;;;;;;16.32;60.52;99606.44;5008276;28;20054;-52
2022/06/30 01:31:50;;;;;;;3.17;0.63;;;;;;;16.31;60.49;99607.31;5025434;28;20095;-47
2022/06/30 01:34:17;;;;;;;3.10;0.65;;;;;;;16.30;60.68;99605.63;5026714;28;20049;-48
2022/06/30 01:36:44;;;;;;;4.43;0.90;;;;;;;16.27;60.84;99606.59;5039339;28;20068;-49
2022/06/30 01:39:11;;;;;;;3.53;0.88;;;;;;;16.27;60.87;99605.72;5034110;28;20045;-46
2022/06/30 01:41:37;;;;;;;3.08;1.15;;;;;;;16.26;61.04;99594.44;5026029;28;20045;-46
2022/06/30 01:44:04;;;;;;;2.50;0.50;;;;;;;16.24;60.84;99590.19;5027430;28;20041;-46
2022/06/30 01:46:31;;;;;;;1.73;0.65;;;;;;;16.22;61.36;99586.75;5023655;28;20053;-46
2022/06/30 01:48:57;;;;;;;2.95;1.30;;;;;;;16.20;61.23;99589.41;5026665;28;20483;-48
2022/06/30 01:51:24;;;;;;;2.88;0.70;;;;;;;16.18;60.91;99586.00;5025623;28;20103;-47
2022/06/30 01:53:51;;;;;;;2.88;0.90;;;;;;;16.16;60.82;99587.81;5023566;28;20053;-49
2022/06/30 01:56:17;;;;;;;1.30;0.93;;;;;;;16.14;61.08;99584.41;5030645;28;20064;-47
2022/06/30 01:58:48;;;;;;;2.05;0.70;;;;;;;16.13;61.24;99582.69;5044780;28;20081;-47
2022/06/30 02:01:14;;;;;;;1.75;0.95;;;;;;;16.09;61.41;99581.94;5046521;28;20048;-46
2022/06/30 02:03:41;;;;;;;1.90;0.47;;;;;;;16.05;61.45;99575.94;5044613;28;20045;-45
2022/06/30 02:06:08;;;;;;;1.65;0.60;;;;;;;16.01;61.46;99568.28;5045379;28;20132;-46
2022/06/30 02:08:34;;;;;;;5.72;1.13;;;;;;;15.98;61.54;99565.78;5049715;28;20393;-46
2022/06/30 02:11:01;;;;;;;4.30;1.15;;;;;;;15.97;61.39;99556.22;5046675;28;20098;-46
2022/06/30 02:13:28;;;;;;;3.50;0.50;;;;;;;15.94;62.23;99558.00;5046889;28;20063;-47
2022/06/30 02:15:54;;;;;;;3.50;0.70;;;;;;;15.90;61.58;99553.78;5045701;28;20053;-47
2022/06/30 02:18:21;;;;;;;3.50;0.75;;;;;;;15.86;61.53;99557.41;5046524;28;20045;-48
2022/06/30 02:20:48;;;;;;;1.55;0.95;;;;;;;15.78;61.46;99562.84;5049836;28;20053;-48
2022/06/30 02:23:14;;;;;;;2.35;0.82;;;;;;;15.76;61.77;99569.91;5042982;28;20064;-48
2022/06/30 02:25:42;;;;;;;1.25;0.68;;;;;;;15.74;61.26;99576.06;5044141;28;20479;-47
2022/06/30 02:28:09;;;;;;;1.75;1.08;;;;;;;15.73;62.29;99584.78;5044797;28;20651;-46
2022/06/30 02:30:36;;;;;;;1.73;0.70;;;;;;;15.72;62.06;99572.66;5044872;28;20099;-50
2022/06/30 02:33:03;;;;;;;2.28;0.82;;;;;;;15.71;61.89;99576.16;5044938;28;20057;-47
2022/06/30 02:35:30;;;;;;;2.30;1.05;;;;;;;15.67;62.57;99576.25;5045045;28;20053;-49
2022/06/30 02:37:57;;;;;;;2.22;0.90;;;;;;;15.65;62.04;99575.47;5048769;28;20122;-46
2022/06/30 02:40:24;;;;;;;2.05;0.63;;;;;;;15.66;62.41;99579.78;5041674;28;20052;-45
2022/06/30 02:42:56;;;;;;;2.40;0.70;;;;;;;15.66;62.57;99581.53;5045684;28;20037;-45
2022/06/30 02:45:23;;;;;;;3.05;0.77;;;;;;;15.67;62.73;99585.84;5043360;28;20053;-45
2022/06/30 02:47:50;;;;;;;2.67;1.27;;;;;;;15.68;62.57;99588.41;5048391;28;20493;-47
2022/06/30 02:50:16;;;;;;;6.10;0.93;;;;;;;15.70;62.44;99579.69;5044942;28;20041;-45
2022/06/30 02:52:43;;;;;;;2.15;1.10;;;;;;;15.70;62.52;99585.75;5045929;28;20053;-48
2022/06/30 02:55:10;;;;;;;2.42;1.13;;;;;;;15.70;62.52;99590.13;5047359;28;20045;-47
2022/06/30 02:57:37;;;;;;;4.32;1.02;;;;;;;15.70;62.74;99590.97;5043767;28;20053;-48
2022/06/30 03:00:09;;;;;;;2.35;0.47;;;;;;;15.71;62.74;99591.84;5044080;28;20049;-45
2022/06/30 03:02:36;;;;;;;2.67;0.93;;;;;;;15.71;63.07;99597.06;5044157;28;20041;-45
2022/06/30 03:05:03;;;;;;;1.50;0.70;;;;;;;15.70;62.76;99584.91;5044191;28;20045;-49
2022/06/30 03:07:30;;;;;;;2.35;1.02;;;;;;;15.69;62.44;99589.25;5047063;28;20148;-46
2022/06/30 03:09:56;;;;;;;2.83;0.85;;;;;;;15.70;62.67;99590.13;5047970;28;20117;-47
2022/06/30 03:12:23;;;;;;;2.83;1.35;;;;;;;15.69;62.91;99589.25;5045594;28;20057;-48
2022/06/30 03:14:50;;;;;;;4.35;0.80;;;;;;;15.66;63.23;99590.22;5044670;28;20068;-45
2022/06/30 03:17:17;;;;;;;3.17;1.08;;;;;;;15.65;63.22;99592.88;5045699;28;20123;-45
2022/06/30 03:19:43;;;;;;;4.03;0.80;;;;;;;15.64;63.36;99594.63;5044577;28;20491;-45
2022/06/30 03:22:10;;;;;;;8.20;0.98;;;;;;;15.65;63.14;99603.31;5043975;28;20491;-46
2022/06/30 03:24:37;;;;;;;3.03;0.73;;;;;;;15.62;62.89;99609.50;5039133;28;20045;-49
2022/06/30 03:27:04;;;;;;;2.75;0.82;;;;;;;15.59;63.26;99606.97;5042000;28;20122;-45
2022/06/30 03:29:31;;;;;;;4.88;1.00;;;;;;;15.58;63.79;99613.09;5045350;28;20075;-48
2022/06/30 03:31:57;;;;;;;3.28;0.90;;;;;;;15.59;63.23;99614.81;5041866;28;20692;-45
2022/06/30 03:34:24;;;;;;;3.53;1.23;;;;;;;15.60;63.15;99611.28;5047957;28;20052;-46
2022/06/30 03:36:51;;;;;;;3.85;0.90;;;;;;;15.59;63.37;99599.13;5045787;28;20493;-47
2022/06/30 03:39:17;;;;;;;1.70;0.75;;;;;;;15.59;63.14;99604.38;5040670;28;20118;-47
2022/06/30 03:41:44;;;;;;;4.00;0.73;;;;;;;15.59;63.39;99601.75;5041413;28;20110;-47
2022/06/30 03:44:10;;;;;;;2.60;0.88;;;;;;;15.59;62.94;99609.59;5045518;28;20049;-47
2022/06/30 03:46:37;;;;;;;1.48;0.60;;;;;;;15.58;63.40;99610.50;5040766;28;20041;-49
2022/06/30 03:49:04;;;;;;;3.90;0.90;;;;;;;15.59;63.24;99620.03;5043388;28;20045;-45
2022/06/30 03:51:32;;;;;;;3.17;0.88;;;;;;;15.58;63.28;99627.91;5039752;28;20041;-46
2022/06/30 03:54:02;;;;;;;3.17;1.23;;;;;;;15.55;63.47;99619.28;5041103;28;20045;-48
2022/06/30 03:56:29;;;;;;;4.88;0.68;;;;;;;15.55;63.67;99623.63;5043820;28;20049;-49
2022/06/30 03:58:55;;;;;;;3.15;0.73;;;;;;;15.56;63.82;99625.34;5042891;28;20048;-47
2022/06/30 04:01:22;;;;;;;3.72;0.68;;;;;;;15.54;63.54;99627.16;5044173;28;20464;-46
2022/06/30 04:03:49;;;;;;;3.60;0.70;;;;;;;15.55;63.63;99628.84;5045268;28;20047;-48
2022/06/30 04:06:15;;;;;;;3.22;1.08;;;;;;;15.54;63.94;99627.16;5042712;28;20053;-46
2022/06/30 04:08:42;;;;;;;2.97;1.10;;;;;;;15.55;63.47;99623.63;5041120;28;20053;-45
2022/06/30 04:11:08;;;;;;;4.30;0.63;;;;;;;15.53;63.90;99621.06;5045665;28;20099;-47
2022/06/30 04:13:35;;;;;;;2.78;0.80;;;;;;;15.51;63.74;99622.84;5043977;28;20082;-45
2022/06/30 04:16:02;;;;;;;4.25;1.17;;;;;;;15.52;64.00;99615.88;5043683;28;20496;-47
2022/06/30 04:18:29;;;;;;;5.45;1.20;;;;;;;15.52;63.61;99605.44;5041465;28;20060;-47
2022/06/30 04:20:56;;;;;;;3.60;0.75;;;;;;;15.53;63.47;99607.16;5048447;28;20044;-47
2022/06/30 04:23:22;;;;;;;3.80;0.77;;;;;;;15.52;64.22;99605.44;5039750;28;20046;-45
2022/06/30 04:25:49;;;;;;;2.50;1.20;;;;;;;15.52;63.63;99602.84;5046108;28;20049;-48
2022/06/30 04:28:15;;;;;;;4.05;1.15;;;;;;;15.53;64.22;99607.16;5043310;28;20044;-46
2022/06/30 04:33:28;;;;;;;3.13;0.57;;;;;;;15.54;64.14;99619.31;5041107;28;20048;-45
2022/06/30 04:35:55;;;;;;;2.55;0.60;;;;;;;15.54;63.79;99611.50;5043509;28;20114;-48
2022/06/30 04:38:22;;;;;;;3.67;0.60;;;;;;;15.55;63.82;99607.97;5044337;28;20106;-46
2022/06/30 04:43:35;;;;;;;1.80;0.77;;;;;;;15.55;64.09;99618.41;5040685;28;20099;-51
2022/06/30 04:46:02;;;;;;;2.95;0.82;;;;;;;15.56;63.62;99614.88;5040585;28;20063;-48
2022/06/30 04:48:28;;;;;;;3.13;1.35;;;;;;;15.56;63.47;99617.50;5038689;28;20946;-52
2022/06/30 04:50:55;;;;;;;4.00;1.25;;;;;;;15.56;63.80;99617.50;5038152;28;20053;-46
2022/06/30 04:53:22;;;;;;;3.50;1.92;;;;;;;15.56;63.83;99625.34;5041930;28;20041;-49
2022/06/30 04:55:49;;;;;;;1.65;1.15;;;;;;;15.54;63.91;99611.50;5042556;28;20048;-46
2022/06/30 04:58:15;;;;;;;2.28;1.23;;;;;;;15.53;64.34;99620.19;5039792;28;20053;-45
2022/06/30 05:00:42;;;;;;;5.18;1.05;;;;;;;15.54;64.33;99622.75;5039374;28;20049;-47
2022/06/30 05:03:09;;;;;;;4.30;1.20;;;;;;;15.56;64.36;99625.34;5040314;28;20045;-48
2022/06/30 05:05:35;;;;;;;2.58;0.50;;;;;;;15.57;64.44;99621.81;5045113;28;20420;-47
2022/06/30 05:08:02;;;;;;;1.88;0.40;;;;;;;15.58;64.56;99623.53;5041714;28;20056;-48
2022/06/30 05:10:28;;;;;;;1.33;0.50;;;;;;;15.60;64.40;99621.72;5043477;28;20045;-47
2022/06/30 05:12:55;;;;;;;3.25;0.70;;;;;;;15.61;64.55;99628.69;5041317;28;20111;-47
2022/06/30 05:15:22;;;;;;;4.45;0.70;;;;;;;15.62;64.17;99630.38;5042708;28;20094;-45
2022/06/30 05:17:48;;;;;;;3.28;0.95;;;;;;;15.62;64.46;99619.94;5042843;28;20675;-47
2022/06/30 05:20:15;;;;;;;5.05;0.75;;;;;;;15.64;64.38;99620.72;5039326;28;20041;-46
2022/06/30 05:22:42;;;;;;;5.13;1.67;;;;;;;15.68;64.62;99624.94;5039892;28;20046;-46
2022/06/30 05:27:55;;;;;;;4.03;0.85;;;;;;;15.76;64.26;99626.47;5038564;28;20040;-48
2022/06/30 05:30:21;;;;;;;2.78;1.13;;;;;;;15.80;63.92;99618.50;5041441;28;20095;-49
2022/06/30 05:32:48;;;;;;;1.55;0.82;;;;;;;15.86;64.13;99627.03;5039837;28;20052;-50
2022/06/30 05:35:15;;;;;;;3.63;0.40;;;;;;;15.92;63.99;99619.88;5039287;28;20049;-48
2022/06/30 05:37:41;;;;;;;5.85;0.90;;;;;;;15.96;64.11;99622.41;5042051;28;20053;-47
2022/06/30 05:40:08;;;;;;;2.85;0.50;;;;;;;16.01;64.08;99623.13;5044166;28;20045;-45
2022/06/30 05:42:35;;;;;;;10.00;1.65;;;;;;;16.06;64.12;99623.84;5039967;28;20110;-48
2022/06/30 05:45:04;;;;;;;3.97;1.40;;;;;;;16.12;64.22;99618.41;5041383;28;20053;-46
2022/06/30 05:47:31;;;;;;;3.05;0.80;;;;;;;16.18;63.77;99623.41;5043548;28;20084;-48
2022/06/30 05:49:57;;;;;;;11.52;2.63;;;;;;;16.23;63.75;99619.81;5043019;28;20413;-46
2022/06/30 05:52:24;;;;;;;18.15;7.05;;;;;;;16.28;63.91;99617.91;5043347;28;20478;-49
2022/06/30 05:54:51;;;;;;;7.57;3.17;;;;;;;16.32;64.15;99620.34;5042151;28;20049;-46
2022/06/30 05:57:17;;;;;;;3.75;1.77;;;;;;;16.38;63.33;99624.50;5041474;28;20048;-49
2022/06/30 05:59:44;;;;;;;5.38;1.60;;;;;;;16.45;63.63;99619.97;5042993;28;20433;-48
2022/06/30 06:02:10;;;;;;;5.55;1.15;;;;;;;16.50;63.20;99627.63;5042944;28;20453;-49
2022/06/30 06:04:37;;;;;;;5.55;3.22;;;;;;;16.52;63.21;99621.44;5040223;28;20045;-48
2022/06/30 06:07:04;;;;;;;5.70;1.95;;;;;;;16.56;63.22;99623.03;5042510;28;20049;-46
2022/06/30 06:09:31;;;;;;;5.00;1.23;;;;;;;16.58;63.48;99616.00;5046067;28;20052;-48
2022/06/30 06:11:57;;;;;;;6.30;2.50;;;;;;;16.62;63.23;99621.97;5042808;28;20107;-47
2022/06/30 06:14:24;;;;;;;5.50;1.30;;;;;;;16.65;63.53;99627.09;5042456;28;21952;-48
2022/06/30 06:16:51;;;;;;;4.50;1.00;;;;;;;16.67;63.35;99633.13;5050661;28;20045;-50
2022/06/30 06:19:17;;;;;;;3.42;1.13;;;;;;;16.69;62.96;99628.69;5045906;28;20041;-46
2022/06/30 06:21:48;;;;;;;6.93;2.28;;;;;;;16.70;63.38;99635.66;5045944;28;20123;-46
2022/06/30 06:24:16;;;;;;;5.90;0.90;;;;;;;16.72;62.73;99632.13;5042266;28;20122;-47
2022/06/30 06:26:44;;;;;;;7.00;1.08;;;;;;;16.72;62.51;99640.78;5045563;28;20057;-49
2022/06/30 06:29:10;;;;;;;4.13;0.73;;;;;;;16.77;62.81;99640.63;5049039;28;20049;-46
2022/06/30 06:31:40;;;;;;;6.05;0.95;;;;;;;16.85;62.49;99633.38;5046862;28;20044;-47
2022/06/30 06:34:07;;;;;;;4.75;1.05;;;;;;;16.95;62.90;99629.53;5049663;28;20052;-48
2022/06/30 06:36:35;;;;;;;7.13;1.95;;;;;;;17.09;62.76;99636.91;5044453;28;20173;-47
2022/06/30 06:39:02;;;;;;;6.95;1.77;;;;;;;17.25;62.53;99632.91;5040550;28;20053;-45
2022/06/30 06:41:28;;;;;;;3.28;1.13;;;;;;;17.43;62.65;99645.25;5042117;28;20051;-45
2022/06/30 06:43:55;;;;;;;6.28;1.48;;;;;;;17.65;62.92;99639.22;5041919;28;20367;-46
2022/06/30 06:46:26;;;;;;;6.68;1.50;;;;;;;17.91;62.66;99645.22;5048885;28;20045;-48
2022/06/30 06:48:55;;;;;;;3.10;1.40;;;;;;;18.16;62.43;99649.47;5042238;28;20619;-49
2022/06/30 06:51:22;;;;;;;4.40;0.88;;;;;;;18.34;62.11;99647.03;5046051;28;20766;-48
2022/06/30 06:53:49;;;;;;;5.13;1.20;;;;;;;18.50;62.11;99650.69;5041964;28;20053;-46
2022/06/30 06:56:15;;;;;;;3.10;0.88;;;;;;;18.72;62.11;99641.94;5038585;28;20045;-45
2022/06/30 06:58:42;;;;;;;6.20;1.50;;;;;;;19.02;62.55;99646.72;5043335;28;20381;-47
2022/06/30 07:01:09;;;;;;;4.30;1.10;;;;;;;19.35;61.81;99652.34;5046257;28;20119;-45
2022/06/30 07:03:36;;;;;;;3.53;1.13;;;;;;;19.62;61.13;99646.72;5036598;28;20454;-45
2022/06/30 07:06:04;;;;;;;7.75;1.58;;;;;;;19.95;60.61;99648.66;5039746;28;20053;-48
2022/06/30 07:08:31;;;;;;;5.80;1.90;;;;;;;20.23;60.19;99635.97;5039198;28;20044;-47
2022/06/30 07:10:58;;;;;;;4.95;0.88;;;;;;;20.49;59.60;99647.81;5044618;28;20048;-50
2022/06/30 07:13:24;;;;;;;3.10;1.40;;;;;;;20.73;59.10;99650.09;5044178;28;20049;-48
2022/06/30 07:15:51;;;;;;;4.88;1.38;;;;;;;20.93;58.35;99656.16;5041180;28;20053;-46
2022/06/30 07:18:18;;;;;;;4.97;1.42;;;;;;;21.16;58.55;99652.31;5044254;28;20063;-46
2022/06/30 07:20:45;;;;;;;4.07;0.95;;;;;;;21.39;56.80;99652.84;5041724;28;20053;-45
2022/06/30 07:23:12;;;;;;;3.63;1.10;;;;;;;21.61;56.20;99656.09;5042819;28;20053;-49
2022/06/30 07:25:55;;;;;;;9.95;1.85;;;;;;;21.79;55.39;99655.06;5042985;28;20048;-48
2022/06/30 07:28:21;;;;;;;3.38;1.73;;;;;;;21.95;55.29;99654.22;5040745;28;20099;-48
2022/06/30 07:31:09;;;;;;;5.57;1.92;;;;;;;22.21;55.61;99662.41;5042810;28;20064;-47
2022/06/30 07:33:35;;;;;;;5.15;1.40;;;;;;;22.42;54.19;99662.09;5044007;28;20041;-45
2022/06/30 07:36:02;;;;;;;3.42;1.38;;;;;;;22.66;53.83;99659.00;5045759;28;20053;-49
2022/06/30 07:38:29;;;;;;;3.45;0.82;;;;;;;22.78;53.56;99660.91;5027361;28;20118;-46
2022/06/30 07:40:56;;;;;;;3.42;1.48;;;;;;;22.87;52.83;99661.28;5039184;28;20731;-46
2022/06/30 07:43:22;;;;;;;3.75;0.85;;;;;;;23.00;52.27;99656.09;5047989;28;20040;-47
2022/06/30 07:45:49;;;;;;;2.50;1.17;;;;;;;23.15;52.53;99664.88;5042787;28;20045;-47
2022/06/30 07:48:16;;;;;;;6.00;0.90;;;;;;;23.41;52.14;99670.34;5043786;28;20572;-47
2022/06/30 07:50:42;;;;;;;6.10;0.82;;;;;;;23.74;51.63;99666.50;5045353;28;20052;-48
2022/06/30 07:53:09;;;;;;;5.15;0.70;;;;;;;23.83;50.04;99660.63;5045199;28;20053;-48
2022/06/30 07:55:36;;;;;;;3.70;1.00;;;;;;;23.85;49.90;99658.72;5047252;28;20049;-47
2022/06/30 07:58:02;;;;;;;2.85;0.90;;;;;;;24.04;49.89;99662.81;5036639;28;20078;-47
2022/06/30 08:00:29;;;;;;;6.93;1.13;;;;;;;24.18;48.94;99666.41;5042896;28;20075;-47
2022/06/30 08:02:56;;;;;;;2.40;0.73;;;;;;;24.17;48.67;99662.91;5046616;28;20057;-49
2022/06/30 08:05:22;;;;;;;4.55;0.82;;;;;;;24.20;48.61;99670.63;5043319;28;20497;-45
2022/06/30 08:07:49;;;;;;;4.13;1.40;;;;;;;24.37;48.00;99669.50;5037153;28;20535;-48
2022/06/30 08:10:16;;;;;;;6.50;1.80;;;;;;;24.55;48.02;99671.84;5044335;28;20561;-49
2022/06/30 08:12:43;;;;;;;2.47;0.52;;;;;;;24.56;47.32;99668.28;5039449;28;20056;-46
2022/06/30 08:15:10;;;;;;;2.20;0.95;;;;;;;24.50;47.51;99660.75;5045271;28;20117;-45
2022/06/30 08:17:37;;;;;;;3.67;0.60;;;;;;;24.65;47.80;99659.69;5041663;28;20052;-50
2022/06/30 08:20:04;;;;;;;2.50;0.63;;;;;;;24.83;47.25;99654.09;5044568;28;20037;-47
2022/06/30 08:22:33;;;;;;;3.33;1.30;;;;;;;24.87;46.42;99660.91;5042103;28;20068;-45
2022/06/30 08:25:00;;;;;;;5.88;2.33;;;;;;;24.78;46.23;99654.41;5041318;28;20091;-48
2022/06/30 08:27:26;;;;;;;2.05;0.60;;;;;;;24.86;46.49;99664.50;5041192;28;20048;-48
2022/06/30 08:29:53;;;;;;;4.10;0.90;;;;;;;24.80;45.48;99664.91;5043332;28;20052;-45
2022/06/30 08:32:20;;;;;;;1.73;0.85;;;;;;;24.65;45.40;99672.94;5039992;28;20060;-46
2022/06/30 08:34:46;;;;;;;4.30;1.02;;;;;;;24.47;45.15;99663.59;5039242;28;20041;-47
2022/06/30 08:37:13;;;;;;;4.00;1.40;;;;;;;24.35;45.70;99666.09;5043789;28;20119;-50
2022/06/30 08:42:27;;;;;;;2.75;0.68;;;;;;;24.77;46.07;99670.41;5035993;28;20045;-47
2022/06/30 08:47:41;;;;;;;0.90;0.45;;;;;;;24.70;45.39;99679.72;5039893;28;20045;-47
2022/06/30 08:50:09;;;;;;;3.53;0.77;;;;;;;24.56;45.24;99678.00;5043107;28;20059;-48
2022/06/30 08:52:51;;;;;;;2.47;0.63;;;;;;;24.38;45.03;99680.94;5039699;28;20064;-48
2022/06/30 08:55:22;;;;;;;4.00;1.58;;;;;;;24.18;45.01;99691.03;5037824;28;24758;-48
2022/06/30 08:57:54;;;;;;;5.78;0.80;;;;;;;24.02;45.07;99693.81;5037440;28;20087;-48
2022/06/30 09:00:21;;;;;;;5.47;1.10;;;;;;;23.83;45.42;99686.22;5037190;28;20107;-46
2022/06/30 09:02:48;;;;;;;3.53;0.60;;;;;;;23.65;45.65;99689.09;5037866;28;20044;-46
2022/06/30 09:05:15;;;;;;;2.80;0.50;;;;;;;23.51;46.28;99682.06;5041184;28;20049;-50
2022/06/30 09:07:42;;;;;;;1.67;0.32;;;;;;;23.39;46.11;99680.16;5035122;28;20045;-45
2022/06/30 09:10:28;;;;;;;3.95;0.88;;;;;;;23.30;46.34;99682.41;5041542;28;20049;-50
2022/06/30 09:12:58;;;;;;;2.08;1.13;;;;;;;23.29;46.50;99678.06;5037932;28;20123;-45
2022/06/30 09:15:27;;;;;;;3.42;0.60;;;;;;;23.22;46.27;99687.31;5035018;28;20054;-48
2022/06/30 09:17:54;;;;;;;2.15;1.15;;;;;;;23.09;45.81;99682.81;5038133;28;20060;-44
2022/06/30 09:20:33;;;;;;;2.70;0.40;;;;;;;22.94;45.43;99673.16;5041033;28;20083;-46
2022/06/30 09:23:00;;;;;;;3.00;0.30;;;;;;;22.84;46.20;99679.00;5037763;28;20055;-45
2022/06/30 09:25:30;;;;;;;1.98;0.45;;;;;;;22.75;46.15;99682.19;5041309;28;20072;-46
2022/06/30 09:27:57;;;;;;;3.25;0.73;;;;;;;22.76;46.73;99681.25;5023389;28;20766;-45
2022/06/30 09:30:24;;;;;;;4.88;0.50;;;;;;;22.80;46.08;99671.38;5040304;28;20049;-46
2022/06/30 09:32:54;;;;;;;4.47;0.60;;;;;;;22.79;46.30;99674.94;5038552;28;20140;-47
2022/06/30 09:35:24;;;;;;;3.78;0.77;;;;;;;22.83;46.40;99679.94;5043421;28;20060;-46
2022/06/30 09:38:09;;;;;;;2.05;0.60;;;;;;;22.76;46.13;99678.59;5043230;28;20046;-44
2022/06/30 09:41:06;;;;;;;1.73;0.40;;;;;;;22.92;47.05;99685.59;5040051;28;20071;-48
2022/06/30 09:43:36;;;;;;;4.22;0.50;;;;;;;23.09;46.54;99682.81;5019428;28;20061;-47
2022/06/30 09:46:04;;;;;;;3.33;0.40;;;;;;;23.31;47.25;99681.47;5026493;28;20889;-50
2022/06/30 09:48:33;;;;;;;0.95;0.45;;;;;;;23.47;46.22;99697.25;5029084;28;20058;-45
2022/06/30 09:51:02;;;;;;;2.20;0.63;;;;;;;23.58;45.86;99693.09;5024779;28;20041;-46
2022/06/30 09:53:30;;;;;;;1.58;0.65;;;;;;;23.69;45.31;99695.03;5023295;28;20473;-44
2022/06/30 09:56:10;;;;;;;3.20;0.82;;;;;;;23.73;45.48;99693.91;5023101;28;20095;-48
2022/06/30 09:58:42;;;;;;;4.18;0.50;;;;;;;23.83;45.02;99705.59;5025609;28;20057;-48
2022/06/30 10:01:10;;;;;;;3.00;0.50;;;;;;;23.88;45.09;99700.84;5022714;28;20059;-45
2022/06/30 10:03:48;;;;;;;2.78;0.75;;;;;;;23.96;45.70;99691.56;5022883;28;20056;-44
2022/06/30 10:06:17;;;;;;;5.90;0.70;;;;;;;24.08;45.33;99684.66;5023355;28;20088;-49
2022/06/30 10:08:44;;;;;;;4.45;1.00;;;;;;;24.22;45.29;99681.13;5023543;28;20054;-46
2022/06/30 10:11:11;;;;;;;3.30;0.63;;;;;;;24.35;44.96;99681.97;5021715;28;20057;-47
2022/06/30 10:13:40;;;;;;;4.88;0.77;;;;;;;24.48;44.22;99691.75;5023334;28;20123;-46
2022/06/30 10:16:08;;;;;;;3.10;0.47;;;;;;;24.57;44.22;99679.69;5026250;28;20053;-49
2022/06/30 10:18:38;;;;;;;8.00;0.90;;;;;;;24.54;43.54;99675.47;5027663;28;20114;-45
2022/06/30 10:21:05;;;;;;;1.58;0.32;;;;;;;24.43;43.65;99686.78;5025509;28;20072;-47
2022/06/30 10:23:32;;;;;;;2.75;0.63;;;;;;;24.38;43.54;99687.06;5022504;28;20050;-47
2022/06/30 10:25:58;;;;;;;2.15;0.50;;;;;;;24.32;44.09;99687.47;5027027;28;20049;-49
2022/06/30 10:28:28;;;;;;;3.00;0.93;;;;;;;24.30;43.72;99684.09;5025049;28;20084;-47
2022/06/30 10:36:25;;;;;;;2.60;0.70;;;;;;;24.41;42.88;99685.19;5040058;27;20406;-46
2022/06/30 10:39:19;;;;;;;4.15;1.55;;;;;;;24.45;43.02;99684.03;5032937;28;20405;-45
2022/06/30 10:44:27;;;;;;;2.53;2.13;;;;;;;24.59;42.72;99678.63;5041288;27;21102;-48
2022/06/30 10:49:51;;;;;;;3.28;1.05;;;;;;;24.93;40.59;99674.66;5040649;27;20393;-45
2022/06/30 10:52:20;;;;;;;2.25;0.63;;;;;;;25.01;42.13;99667.91;5000687;28;20054;-46
2022/06/30 10:54:47;;;;;;;3.92;1.08;;;;;;;25.00;41.32;99670.66;4998430;28;20434;-47
2022/06/30 10:57:16;;;;;;;1.65;0.60;;;;;;;25.00;41.65;99668.00;4999936;28;20058;-46
2022/06/30 10:59:43;;;;;;;2.15;1.02;;;;;;;24.98;41.44;99659.28;5002095;28;20141;-45
2022/06/30 11:02:23;;;;;;;0.95;0.70;;;;;;;24.81;40.89;99655.13;4999055;28;20049;-45
2022/06/30 11:05:11;;;;;;;3.63;1.08;;;;;;;24.64;41.50;99652.72;5000770;28;20045;-46
2022/06/30 17:03:28;;;;;;;0.93;0.55;;;;;;;20.23;52.18;99713.06;5011731;28;20427;-49
2022/06/30 17:05:55;;;;;;;3.13;0.95;;;;;;;20.24;51.81;99712.16;5000918;28;20151;-46
2022/06/30 17:08:22;;;;;;;1.77;0.77;;;;;;;20.25;51.86;99716.47;5000321;28;20046;-46
2022/06/30 17:10:48;;;;;;;3.40;0.70;;;;;;;20.26;51.61;99709.44;4999664;28;20054;-50
2022/06/30 17:13:15;;;;;;;1.33;0.70;;;;;;;20.24;52.08;99706.91;4996684;28;20046;-49
2022/06/30 17:15:42;;;;;;;1.08;0.65;;;;;;;20.23;51.99;99710.44;4996271;28;21394;-49
2022/06/30 17:18:09;;;;;;;1.60;0.55;;;;;;;20.22;51.82;99703.47;4992681;28;20054;-49
2022/06/30 17:20:36;;;;;;;2.45;0.65;;;;;;;20.18;51.98;99704.56;5000733;28;20050;-47
2022/06/30 17:23:02;;;;;;;0.77;0.40;;;;;;;20.16;52.22;99709.03;4995942;28;20121;-45
2022/06/30 17:25:31;;;;;;;1.40;0.63;;;;;;;20.13;51.92;99706.56;4997435;28;20050;-47
2022/06/30 17:27:57;;;;;;;1.40;0.60;;;;;;;20.11;51.67;99708.41;4998646;28;20053;-48
2022/06/30 17:30:24;;;;;;;2.53;0.73;;;;;;;20.05;51.87;99709.56;4992994;28;20453;-45
2022/06/30 17:32:51;;;;;;;2.45;1.35;;;;;;;20.02;52.02;99707.94;4996051;28;20053;-46
2022/06/30 17:35:17;;;;;;;2.15;0.60;;;;;;;19.97;51.88;99709.91;4995639;28;20488;-47
2022/06/30 17:37:44;;;;;;;2.67;0.45;;;;;;;19.91;51.56;99715.44;4996094;28;20046;-46
2022/06/30 17:40:11;;;;;;;1.40;1.30;;;;;;;19.85;51.93;99713.94;4993757;28;20769;-46
2022/06/30 17:42:38;;;;;;;1.65;0.55;;;;;;;19.83;52.12;99722.81;4995747;28;20048;-46
2022/06/30 17:45:05;;;;;;;3.47;0.60;;;;;;;19.79;51.87;99727.34;4989740;28;20588;-48
2022/06/30 17:47:32;;;;;;;1.85;0.57;;;;;;;19.77;51.77;99730.09;4991563;28;20104;-46
2022/06/30 17:49:58;;;;;;;0.82;0.45;;;;;;;19.75;52.29;99728.44;4995165;28;20057;-45
2022/06/30 17:52:25;;;;;;;0.60;0.30;;;;;;;19.74;52.33;99735.47;4992728;28;20045;-44
2022/06/30 17:54:51;;;;;;;4.05;0.75;;;;;;;19.70;51.88;99725.16;4992216;28;20046;-45
2022/06/30 17:57:24;;;;;;;0.80;0.45;;;;;;;19.64;51.30;99727.16;4995894;28;20049;-45
2022/06/30 17:59:51;;;;;;;3.35;0.60;;;;;;;19.58;51.64;99724.81;4998664;28;20054;-48